Time;durP1;ratioP1;P1;durP2;ratioP2;P2;SDS_P1;SDS_P2;PMS_P1;PMS_P2;Temp;Humidity;BMP_temperature;BMP_pressure;BME280_temperature;BME280_humidity;BME280_pressure;Samples;Min_cycle;Max_cycle;Signal;HPM_P1;HPM_P2
2023/10/28 00:02:00;;;;;;;6.53;3.17;;;16.90;1.00;;;;;;5050376;28;20037;-26
2023/10/28 00:04:26;;;;;;;5.68;2.95;;;17.00;1.00;;;;;;5048216;28;20048;-28
2023/10/28 00:06:52;;;;;;;5.93;3.33;;;16.60;1.00;;;;;;5048758;28;20068;-28
2023/10/28 00:09:20;;;;;;;6.40;3.22;;;16.80;1.00;;;;;;5049296;28;20036;-28
2023/10/28 00:11:46;;;;;;;6.75;3.30;;;;;;;;;;5049291;28;20057;-28
2023/10/28 00:14:12;;;;;;;6.50;3.45;;;16.80;1.00;;;;;;5049068;28;20040;-27
2023/10/28 00:16:38;;;;;;;5.60;3.00;;;16.80;1.00;;;;;;5050700;28;20504;-26
2023/10/28 00:19:07;;;;;;;5.82;2.88;;;16.90;1.00;;;;;;5050766;28;20075;-30
2023/10/28 00:21:34;;;;;;;5.28;2.90;;;16.60;1.00;;;;;;5050205;28;20047;-25
2023/10/28 00:24:00;;;;;;;5.20;2.67;;;16.80;1.00;;;;;;5047878;28;20090;-28
2023/10/28 00:26:27;;;;;;;5.72;2.90;;;16.80;1.00;;;;;;5048190;28;20079;-25
2023/10/28 00:28:53;;;;;;;6.75;2.70;;;;;;;;;;5045880;28;20623;-26
2023/10/28 00:31:19;;;;;;;6.15;3.00;;;16.30;1.00;;;;;;5043795;28;20040;-28
2023/10/28 00:33:45;;;;;;;5.40;2.60;;;;;;;;;;5043871;28;20074;-28
2023/10/28 00:36:11;;;;;;;5.97;3.13;;;;;;;;;;5046419;28;20033;-29
2023/10/28 00:38:37;;;;;;;6.93;3.95;;;17.10;1.00;;;;;;5045227;28;20512;-28
2023/10/28 00:41:03;;;;;;;6.80;3.40;;;;;;;;;;5045697;28;20072;-25
2023/10/28 00:43:32;;;;;;;6.43;3.28;;;16.70;1.00;;;;;;5047702;28;20037;-27
2023/10/28 00:45:59;;;;;;;6.57;3.50;;;16.70;1.00;;;;;;5045004;28;20049;-28
2023/10/28 00:48:26;;;;;;;5.57;3.25;;;16.70;1.00;;;;;;5038592;28;20029;-26
2023/10/28 00:50:54;;;;;;;6.22;3.83;;;16.80;1.00;;;;;;5044162;28;20040;-28
2023/10/28 00:53:21;;;;;;;6.80;3.53;;;;;;;;;;5041962;28;20051;-26
2023/10/28 00:55:49;;;;;;;8.13;4.72;;;17.20;1.00;;;;;;5046580;28;20102;-26
2023/10/28 00:58:16;;;;;;;6.57;3.92;;;16.90;1.00;;;;;;5043238;28;20083;-26
2023/10/28 01:00:42;;;;;;;7.05;4.30;;;16.80;1.00;;;;;;5031052;28;20033;-27
2023/10/28 01:03:09;;;;;;;7.43;4.32;;;17.10;1.00;;;;;;5039073;28;20049;-26
2023/10/28 01:05:35;;;;;;;7.63;4.45;;;16.70;1.00;;;;;;5048946;28;20099;-28
2023/10/28 01:08:01;;;;;;;8.10;3.95;;;17.10;1.00;;;;;;5048484;28;20037;-28
2023/10/28 01:10:30;;;;;;;7.55;3.97;;;16.80;1.00;;;;;;5046870;28;20115;-28
2023/10/28 01:12:57;;;;;;;6.85;3.63;;;16.80;1.00;;;;;;5040872;28;20037;-26
2023/10/28 01:15:24;;;;;;;8.13;4.22;;;16.70;1.00;;;;;;5039795;28;20072;-28
2023/10/28 01:17:50;;;;;;;7.78;3.80;;;17.30;1.00;;;;;;5045827;28;20052;-28
2023/10/28 01:20:17;;;;;;;6.57;3.83;;;;;;;;;;5048928;28;20040;-24
2023/10/28 01:22:44;;;;;;;6.47;3.38;;;16.80;1.00;;;;;;5042609;28;20033;-26
2023/10/28 01:25:09;;;;;;;5.85;3.45;;;16.90;1.00;;;;;;5033164;28;20444;-28
2023/10/28 01:27:36;;;;;;;9.50;3.88;;;16.90;1.00;;;;;;5041382;28;20040;-28
2023/10/28 01:30:03;;;;;;;7.43;3.40;;;16.90;1.00;;;;;;5034910;28;20472;-27
2023/10/28 01:32:31;;;;;;;9.63;4.45;;;16.70;1.00;;;;;;5058610;28;20040;-28
2023/10/28 01:34:57;;;;;;;7.57;4.45;;;17.00;1.00;;;;;;5046594;28;20127;-28
2023/10/28 01:37:22;;;;;;;6.22;3.78;;;16.20;1.00;;;;;;5045233;28;20113;-25
2023/10/28 01:39:52;;;;;;;6.25;3.47;;;;;;;;;;5052233;28;20045;-26
2023/10/28 01:42:20;;;;;;;6.63;3.47;;;;;;;;;;5040015;28;20449;-24
2023/10/28 01:44:46;;;;;;;6.32;3.60;;;16.80;1.00;;;;;;5052243;28;20433;-27
2023/10/28 01:47:13;;;;;;;6.78;3.90;;;16.70;1.00;;;;;;5046720;28;20041;-29
2023/10/28 01:49:39;;;;;;;8.15;4.85;;;16.80;1.00;;;;;;5045546;28;20080;-24
2023/10/28 01:52:07;;;;;;;8.07;4.50;;;16.60;1.00;;;;;;5042616;28;20116;-26
2023/10/28 01:54:35;;;;;;;7.05;4.18;;;17.20;1.00;;;;;;5046847;28;20052;-29
2023/10/28 01:57:06;;;;;;;7.40;3.83;;;17.10;1.00;;;;;;5041463;28;20513;-26
2023/10/28 01:59:36;;;;;;;6.95;3.72;;;;;;;;;;5065157;28;20037;-29
2023/10/28 02:02:02;;;;;;;8.73;4.45;;;17.10;1.00;;;;;;5038993;28;20037;-28
2023/10/28 02:04:32;;;;;;;9.18;4.78;;;17.00;1.00;;;;;;5041992;28;20044;-28
2023/10/28 02:06:58;;;;;;;7.88;4.60;;;16.70;1.00;;;;;;5041487;28;20041;-28
2023/10/28 02:09:25;;;;;;;7.57;4.57;;;16.90;1.00;;;;;;5022345;28;20411;-25
2023/10/28 02:11:52;;;;;;;8.52;4.85;;;;;;;;;;5030904;28;20040;-27
2023/10/28 02:14:18;;;;;;;7.78;4.68;;;17.00;1.00;;;;;;5051169;28;20033;-27
2023/10/28 02:16:44;;;;;;;7.95;4.60;;;16.70;1.00;;;;;;5038527;28;20036;-26
2023/10/28 02:19:10;;;;;;;7.55;4.18;;;17.00;1.00;;;;;;5039498;28;20036;-26
2023/10/28 02:21:36;;;;;;;7.38;4.53;;;;;;;;;;5040211;28;20484;-26
2023/10/28 02:24:04;;;;;;;6.93;4.32;;;16.70;1.00;;;;;;5041541;28;20427;-28
2023/10/28 02:26:30;;;;;;;8.30;5.05;;;16.80;1.00;;;;;;5029492;28;20075;-27
2023/10/28 02:28:56;;;;;;;7.65;4.57;;;16.50;1.00;;;;;;5047694;28;20048;-27
2023/10/28 02:31:22;;;;;;;8.75;5.07;;;17.10;1.00;;;;;;5040075;28;20030;-29
2023/10/28 02:33:48;;;;;;;8.00;4.40;;;16.70;1.00;;;;;;5037717;28;20477;-28
2023/10/28 02:36:13;;;;;;;6.65;4.15;;;16.80;1.00;;;;;;5048050;28;20029;-28
2023/10/28 02:38:40;;;;;;;8.65;4.68;;;16.70;1.00;;;;;;5054582;28;20110;-28
2023/10/28 02:41:08;;;;;;;8.55;4.50;;;16.50;1.00;;;;;;5034622;28;20041;-29
2023/10/28 02:43:38;;;;;;;7.97;4.68;;;17.20;1.00;;;;;;5042983;28;20041;-28
2023/10/28 02:46:05;;;;;;;7.40;4.25;;;;;;;;;;5046842;28;20045;-28
2023/10/28 02:48:31;;;;;;;7.88;4.40;;;16.50;1.00;;;;;;5043000;28;20041;-28
2023/10/28 02:51:06;;;;;;;8.25;4.43;;;16.90;1.00;;;;;;5045128;28;20033;-26
2023/10/28 02:53:33;;;;;;;6.97;3.70;;;16.70;1.00;;;;;;5047905;28;20086;-28
2023/10/28 02:56:03;;;;;;;6.07;3.78;;;;;;;;;;5046814;28;20140;-28
2023/10/28 02:58:29;;;;;;;7.93;4.40;;;16.60;1.00;;;;;;5047849;28;20032;-28
2023/10/28 03:00:57;;;;;;;6.78;3.83;;;16.60;1.00;;;;;;5046368;28;20041;-28
2023/10/28 03:03:23;;;;;;;7.05;3.90;;;16.60;1.00;;;;;;5043271;28;20041;-28
2023/10/28 03:05:52;;;;;;;7.40;4.55;;;16.50;1.00;;;;;;5049160;28;20040;-28
2023/10/28 03:08:19;;;;;;;7.82;4.70;;;;;;;;;;5046197;28;20040;-30
2023/10/28 03:10:44;;;;;;;7.55;3.80;;;17.10;1.00;;;;;;5048294;28;20132;-27
2023/10/28 03:13:10;;;;;;;7.53;3.92;;;;;;;;;;5055340;28;20124;-29
2023/10/28 03:15:36;;;;;;;7.38;4.05;;;15.90;1.00;;;;;;5051526;28;20048;-28
2023/10/28 03:18:02;;;;;;;7.47;3.63;;;17.10;1.00;;;;;;5046148;28;20456;-28
2023/10/28 03:20:27;;;;;;;6.40;3.42;;;16.70;1.00;;;;;;5045345;28;20056;-25
2023/10/28 03:22:53;;;;;;;6.68;3.25;;;17.10;1.00;;;;;;5044272;28;20033;-26
2023/10/28 03:25:19;;;;;;;6.15;3.22;;;16.80;1.00;;;;;;5047119;28;20045;-28
2023/10/28 03:27:45;;;;;;;8.63;4.38;;;16.70;1.00;;;;;;5046126;28;20076;-28
2023/10/28 03:30:12;;;;;;;7.72;4.38;;;16.50;1.00;;;;;;5054458;28;20094;-28
2023/10/28 03:32:37;;;;;;;7.43;3.72;;;16.60;1.00;;;;;;5047603;28;20041;-28
2023/10/28 03:35:03;;;;;;;6.78;4.32;;;16.60;1.00;;;;;;5026098;28;20513;-28
2023/10/28 03:37:31;;;;;;;7.95;4.53;;;16.40;1.00;;;;;;5052272;28;20036;-24
2023/10/28 03:39:57;;;;;;;8.32;4.47;;;16.50;1.00;;;;;;5051602;28;20049;-27
2023/10/28 03:42:22;;;;;;;7.22;3.80;;;16.90;1.00;;;;;;5037394;28;20037;-25
2023/10/28 03:44:48;;;;;;;7.47;4.05;;;16.70;1.00;;;;;;5047034;28;20044;-27
2023/10/28 03:47:14;;;;;;;8.95;4.20;;;16.50;1.00;;;;;;5038396;28;20508;-27
2023/10/28 03:49:40;;;;;;;6.93;3.88;;;16.70;1.00;;;;;;5036953;28;20136;-26
2023/10/28 03:52:06;;;;;;;7.45;4.05;;;16.90;1.00;;;;;;5051061;28;20174;-26
2023/10/28 03:54:32;;;;;;;7.18;3.90;;;16.70;1.00;;;;;;5048811;28;20048;-28
2023/10/28 03:56:58;;;;;;;6.65;3.60;;;16.60;1.00;;;;;;5043462;28;20029;-29
2023/10/28 03:59:24;;;;;;;6.57;3.45;;;16.80;1.00;;;;;;5044774;28;20040;-28
2023/10/28 04:01:50;;;;;;;6.90;3.50;;;16.50;1.00;;;;;;5053604;28;20037;-28
2023/10/28 04:04:16;;;;;;;7.25;3.80;;;16.70;1.00;;;;;;5046110;28;20035;-27
2023/10/28 04:06:42;;;;;;;7.13;3.70;;;16.50;1.00;;;;;;5049645;28;20036;-28
2023/10/28 04:09:08;;;;;;;7.32;3.95;;;16.70;1.00;;;;;;5049933;28;20399;-28
2023/10/28 04:11:33;;;;;;;7.50;3.80;;;16.50;1.00;;;;;;5047126;28;20036;-25
2023/10/28 04:13:59;;;;;;;7.05;3.53;;;16.40;1.00;;;;;;5049216;28;20037;-28
2023/10/28 04:16:25;;;;;;;5.70;2.95;;;16.40;1.00;;;;;;5050754;28;20032;-29
2023/10/28 04:18:52;;;;;;;7.15;3.65;;;17.00;1.00;;;;;;5040713;28;20041;-28
2023/10/28 04:21:18;;;;;;;6.65;3.47;;;16.60;1.00;;;;;;5052204;28;20385;-28
2023/10/28 04:23:43;;;;;;;6.60;3.33;;;16.60;1.00;;;;;;5042306;28;20098;-27
2023/10/28 04:26:09;;;;;;;6.20;3.20;;;16.50;1.00;;;;;;5047663;28;20357;-28
2023/10/28 04:28:35;;;;;;;8.02;3.50;;;16.50;1.00;;;;;;5050511;28;20041;-26
2023/10/28 04:31:01;;;;;;;6.18;3.03;;;;;;;;;;5048361;28;20059;-27
2023/10/28 04:33:27;;;;;;;7.20;3.40;;;;;;;;;;5046725;28;20083;-28
2023/10/28 04:35:53;;;;;;;7.07;3.42;;;16.40;1.00;;;;;;5047288;28;20044;-24
2023/10/28 04:38:24;;;;;;;6.97;3.25;;;16.50;1.00;;;;;;5045819;28;20038;-28
2023/10/28 04:40:50;;;;;;;7.28;3.22;;;16.80;1.00;;;;;;5043125;28;20036;-27
2023/10/28 04:43:15;;;;;;;7.32;3.40;;;16.30;1.00;;;;;;5048487;28;20051;-26
2023/10/28 04:45:45;;;;;;;6.55;3.10;;;16.50;1.00;;;;;;5051885;28;20032;-24
2023/10/28 04:48:13;;;;;;;6.82;2.95;;;15.80;1.00;;;;;;5059258;28;20041;-28
2023/10/28 04:50:39;;;;;;;6.68;3.17;;;17.00;1.00;;;;;;5047568;28;20041;-26
2023/10/28 04:53:05;;;;;;;7.32;2.97;;;;;;;;;;5052417;28;20457;-26
2023/10/28 04:55:30;;;;;;;5.93;3.10;;;16.40;1.00;;;;;;5046346;28;20044;-27
2023/10/28 04:57:56;;;;;;;7.60;2.85;;;16.30;1.00;;;;;;5044970;28;20138;-26
2023/10/28 05:00:22;;;;;;;5.53;2.83;;;16.50;1.00;;;;;;5047013;28;20075;-28
2023/10/28 05:02:47;;;;;;;6.38;2.70;;;15.60;1.00;;;;;;5051868;28;20384;-27
2023/10/28 05:05:16;;;;;;;6.10;3.00;;;16.90;1.00;;;;;;5049577;28;20036;-27
2023/10/28 05:07:42;;;;;;;6.63;2.67;;;16.70;1.00;;;;;;5042811;28;20040;-29
2023/10/28 05:10:09;;;;;;;6.90;2.80;;;16.50;1.00;;;;;;5046762;28;20797;-29
2023/10/28 05:12:35;;;;;;;5.75;2.85;;;16.40;1.00;;;;;;5044573;28;20040;-27
2023/10/28 05:15:02;;;;;;;6.68;2.97;;;16.30;1.00;;;;;;5045300;28;20098;-25
2023/10/28 05:17:27;;;;;;;6.57;2.95;;;16.30;1.00;;;;;;5046829;28;20036;-25
2023/10/28 05:19:53;;;;;;;6.25;2.88;;;16.30;1.00;;;;;;5046252;28;20130;-28
2023/10/28 05:22:19;;;;;;;7.55;2.97;;;16.70;1.00;;;;;;5046000;28;20455;-26
2023/10/28 05:24:47;;;;;;;5.57;2.70;;;16.70;1.00;;;;;;5047917;28;20040;-27
2023/10/28 05:27:13;;;;;;;5.93;2.70;;;15.60;1.00;;;;;;5046228;28;20037;-28
2023/10/28 05:29:39;;;;;;;5.80;2.70;;;16.50;1.00;;;;;;5047523;28;20041;-27
2023/10/28 05:32:05;;;;;;;5.35;2.78;;;16.20;1.00;;;;;;5041457;28;20037;-27
2023/10/28 05:34:30;;;;;;;5.63;2.92;;;15.60;1.00;;;;;;5039975;28;20037;-28
2023/10/28 05:36:56;;;;;;;6.00;3.22;;;;;;;;;;5045971;28;20041;-26
2023/10/28 05:39:22;;;;;;;6.03;2.75;;;16.20;1.00;;;;;;5038952;28;20036;-25
2023/10/28 05:41:48;;;;;;;6.03;2.50;;;;;;;;;;5042084;28;20037;-28
2023/10/28 05:44:14;;;;;;;6.35;3.03;;;;;;;;;;5049513;28;20166;-27
2023/10/28 05:46:41;;;;;;;6.50;2.65;;;;;;;;;;5043933;28;20108;-28
2023/10/28 05:49:07;;;;;;;6.47;3.10;;;16.70;1.00;;;;;;5047371;28;20065;-26
2023/10/28 05:51:36;;;;;;;5.88;2.38;;;16.10;1.00;;;;;;5048484;28;20068;-28
2023/10/28 05:54:03;;;;;;;6.32;2.35;;;16.60;1.00;;;;;;5046233;28;20033;-27
2023/10/28 05:56:30;;;;;;;5.25;2.65;;;15.80;1.00;;;;;;5049067;28;20044;-29
2023/10/28 05:58:58;;;;;;;6.90;2.58;;;15.80;1.00;;;;;;5047941;28;20463;-28
2023/10/28 06:01:24;;;;;;;6.55;2.40;;;16.10;1.00;;;;;;5046158;28;20032;-26
2023/10/28 06:03:50;;;;;;;5.68;2.70;;;16.30;1.00;;;;;;5029810;28;20091;-28
2023/10/28 06:06:15;;;;;;;5.03;2.45;;;16.50;1.00;;;;;;5048134;28;20045;-26
2023/10/28 06:08:42;;;;;;;5.55;2.45;;;;;;;;;;5049419;28;20480;-30
2023/10/28 06:11:09;;;;;;;5.25;2.22;;;;;;;;;;5047593;28;20040;-28
2023/10/28 06:13:36;;;;;;;6.13;2.70;;;16.70;1.00;;;;;;5049358;28;20075;-27
2023/10/28 06:16:01;;;;;;;6.78;2.65;;;16.70;1.00;;;;;;5050723;28;20037;-27
2023/10/28 06:18:30;;;;;;;5.88;2.42;;;16.20;1.00;;;;;;5048577;28;20423;-27
2023/10/28 06:20:56;;;;;;;5.65;2.30;;;16.40;1.00;;;;;;5047384;28;20102;-28
2023/10/28 06:23:21;;;;;;;5.97;2.47;;;15.50;1.00;;;;;;5055850;28;20484;-28
2023/10/28 06:25:47;;;;;;;7.30;2.65;;;16.20;1.00;;;;;;5051202;28;20492;-25
2023/10/28 06:28:13;;;;;;;5.80;2.58;;;;;;;;;;5051226;28;20024;-25
2023/10/28 06:30:47;;;;;;;6.05;2.70;;;;;;;;;;5050333;28;20098;-27
2023/10/28 06:33:13;;;;;;;6.53;2.40;;;16.20;1.00;;;;;;5040205;28;20033;-25
2023/10/28 06:35:38;;;;;;;5.10;2.10;;;16.50;1.00;;;;;;5047555;28;20036;-28
2023/10/28 06:38:06;;;;;;;5.80;2.50;;;16.40;1.00;;;;;;5050295;28;20433;-28
2023/10/28 06:40:32;;;;;;;6.85;2.72;;;16.00;1.00;;;;;;5050373;28;20222;-25
2023/10/28 06:42:58;;;;;;;8.43;2.35;;;;;;;;;;5048391;28;20119;-29
2023/10/28 06:45:24;;;;;;;7.43;3.10;;;15.80;1.00;;;;;;5044141;28;20068;-26
2023/10/28 06:47:53;;;;;;;7.05;3.13;;;16.10;1.00;;;;;;5048033;28;20433;-29
2023/10/28 06:50:22;;;;;;;39.92;14.05;;;16.70;1.00;;;;;;5042072;28;20558;-27
2023/10/28 06:52:48;;;;;;;28.55;9.77;;;;;;;;;;5037150;28;20065;-25
2023/10/28 06:55:15;;;;;;;29.45;9.48;;;16.60;1.00;;;;;;5048224;28;20044;-28
2023/10/28 06:57:42;;;;;;;28.75;7.85;;;;;;;;;;5043673;28;20116;-27
2023/10/28 07:00:15;;;;;;;21.60;7.20;;;17.10;1.00;;;;;;5045944;28;20049;-28
2023/10/28 07:02:42;;;;;;;17.33;6.47;;;16.90;1.00;;;;;;5045997;28;20049;-26
2023/10/28 07:05:08;;;;;;;20.20;6.47;;;16.60;1.00;;;;;;5039649;28;20046;-25
2023/10/28 07:07:37;;;;;;;15.02;5.55;;;16.50;1.00;;;;;;5035490;28;20044;-28
2023/10/28 07:10:04;;;;;;;13.32;5.32;;;17.40;1.00;;;;;;5036498;28;20364;-25
2023/10/28 07:12:30;;;;;;;12.18;4.30;;;16.60;1.00;;;;;;5042808;28;20040;-29
2023/10/28 07:14:56;;;;;;;14.13;5.15;;;16.40;1.00;;;;;;5040962;28;21398;-28
2023/10/28 07:17:22;;;;;;;13.23;4.85;;;;;;;;;;5045751;28;20036;-29
2023/10/28 07:19:49;;;;;;;11.65;4.53;;;17.00;1.00;;;;;;5039030;28;20045;-26
2023/10/28 07:22:22;;;;;;;10.40;3.78;;;;;;;;;;5042033;28;20083;-27
2023/10/28 07:24:49;;;;;;;12.63;4.20;;;16.70;1.00;;;;;;5037754;28;20045;-25
2023/10/28 07:27:15;;;;;;;12.40;3.92;;;16.80;1.00;;;;;;5040706;28;20302;-26
2023/10/28 07:29:40;;;;;;;9.07;3.47;;;16.50;1.00;;;;;;5044823;28;20041;-27
2023/10/28 07:32:06;;;;;;;9.05;3.92;;;16.30;1.00;;;;;;5043859;28;20039;-24
2023/10/28 07:34:32;;;;;;;8.30;3.80;;;16.80;1.00;;;;;;5048666;28;20508;-28
2023/10/28 07:37:03;;;;;;;11.10;3.30;;;16.50;1.00;;;;;;5042977;28;20389;-25
2023/10/28 07:39:29;;;;;;;8.32;3.17;;;16.70;1.00;;;;;;5044890;28;20056;-26
2023/10/28 07:41:56;;;;;;;7.90;2.92;;;;;;;;;;5044460;28;20044;-26
2023/10/28 07:44:21;;;;;;;6.93;3.15;;;16.80;1.00;;;;;;5048222;28;20115;-26
2023/10/28 07:46:47;;;;;;;9.48;3.28;;;16.10;1.00;;;;;;5046911;28;20455;-25
2023/10/28 07:49:13;;;;;;;12.18;3.83;;;16.80;1.00;;;;;;5045516;28;21251;-28
2023/10/28 07:51:39;;;;;;;16.00;4.38;;;;;;;;;;5046749;28;20139;-27
2023/10/28 07:54:06;;;;;;;23.52;8.73;;;;;;;;;;5041534;28;20037;-28
2023/10/28 07:56:32;;;;;;;25.80;7.88;;;17.00;1.00;;;;;;5048679;28;20033;-27
2023/10/28 07:59:02;;;;;;;24.25;8.88;;;;;;;;;;5043793;28;20500;-28
2023/10/28 08:01:32;;;;;;;20.45;6.25;;;16.10;1.00;;;;;;5045462;28;20039;-27
2023/10/28 08:03:58;;;;;;;19.15;6.50;;;17.00;1.00;;;;;;5049047;28;20044;-28
2023/10/28 08:06:24;;;;;;;16.08;5.85;;;17.00;1.00;;;;;;5049591;28;20033;-28
2023/10/28 08:08:54;;;;;;;17.00;5.82;;;16.90;1.00;;;;;;5052705;28;20504;-28
2023/10/28 08:11:24;;;;;;;16.65;5.13;;;16.10;1.00;;;;;;5048428;28;20545;-28
2023/10/28 08:13:52;;;;;;;18.52;5.40;;;16.50;1.00;;;;;;5047788;28;20040;-28
2023/10/28 08:16:20;;;;;;;12.48;4.55;;;;;;;;;;5043138;28;20044;-28
2023/10/28 08:18:47;;;;;;;14.15;4.88;;;17.10;1.00;;;;;;5039894;28;20053;-28
2023/10/28 08:21:16;;;;;;;16.33;4.97;;;16.80;1.00;;;;;;5040702;28;20554;-27
2023/10/28 08:23:43;;;;;;;14.55;6.25;;;16.70;1.00;;;;;;5041737;28;20382;-28
2023/10/28 08:26:10;;;;;;;16.17;5.25;;;16.90;1.00;;;;;;5040733;28;20041;-27
2023/10/28 08:28:36;;;;;;;14.80;4.40;;;17.20;1.00;;;;;;5043270;28;20049;-25
2023/10/28 08:31:02;;;;;;;14.57;4.57;;;16.80;1.00;;;;;;5041261;28;20124;-28
2023/10/28 08:33:28;;;;;;;14.25;4.60;;;16.80;1.00;;;;;;5036714;28;20041;-26
2023/10/28 08:35:56;;;;;;;12.32;4.28;;;16.30;1.00;;;;;;5043038;28;20029;-26
2023/10/28 08:38:22;;;;;;;16.65;4.97;;;16.80;1.00;;;;;;5045424;28;20029;-26
2023/10/28 08:40:50;;;;;;;13.82;4.15;;;;;;;;;;5047061;28;20043;-25
2023/10/28 08:43:17;;;;;;;12.32;4.20;;;16.90;1.00;;;;;;5044939;28;20124;-25
2023/10/28 08:45:43;;;;;;;14.95;4.80;;;16.70;1.00;;;;;;5050267;28;20043;-26
2023/10/28 08:48:11;;;;;;;11.18;4.28;;;16.80;1.00;;;;;;5050512;28;20041;-28
2023/10/28 08:50:39;;;;;;;11.55;3.53;;;17.10;1.00;;;;;;5048735;28;20029;-28
2023/10/28 08:53:08;;;;;;;10.48;3.78;;;17.00;1.00;;;;;;5048332;28;20091;-27
2023/10/28 08:55:36;;;;;;;10.73;3.88;;;17.20;1.00;;;;;;5044975;28;20037;-26
2023/10/28 08:58:03;;;;;;;10.15;4.18;;;16.80;1.00;;;;;;5044182;28;20032;-28
2023/10/28 09:00:30;;;;;;;10.48;3.05;;;17.00;1.00;;;;;;5049776;28;20067;-28
2023/10/28 09:02:56;;;;;;;8.00;3.20;;;16.30;1.00;;;;;;5044549;28;20044;-26
2023/10/28 09:05:22;;;;;;;10.07;3.00;;;16.90;1.00;;;;;;5047486;28;20040;-27
2023/10/28 09:07:48;;;;;;;7.22;2.88;;;;;;;;;;5044759;28;20090;-26
2023/10/28 09:10:15;;;;;;;7.78;2.92;;;17.00;1.00;;;;;;5048852;28;20405;-28
2023/10/28 09:12:41;;;;;;;7.97;3.45;;;17.00;1.00;;;;;;5062699;28;20060;-29
2023/10/28 09:15:11;;;;;;;6.68;2.80;;;16.70;1.00;;;;;;5046694;28;20497;-28
2023/10/28 09:17:39;;;;;;;7.60;2.80;;;16.90;1.00;;;;;;5051798;28;20033;-27
2023/10/28 09:20:12;;;;;;;9.63;3.05;;;16.90;1.00;;;;;;5049874;28;20044;-26
2023/10/28 09:22:44;;;;;;;5.72;2.47;;;;;;;;;;5049968;28;20508;-28
2023/10/28 09:25:11;;;;;;;6.43;2.83;;;16.90;1.00;;;;;;5049972;28;20041;-27
2023/10/28 09:27:38;;;;;;;9.45;2.70;;;16.90;1.00;;;;;;5049825;28;20041;-26
2023/10/28 09:30:06;;;;;;;8.07;2.63;;;17.00;1.00;;;;;;5050047;28;20040;-28
2023/10/28 09:32:35;;;;;;;7.20;2.30;;;17.10;1.00;;;;;;5048840;28;20025;-28
2023/10/28 09:35:07;;;;;;;8.05;2.15;;;;;;;;;;5050911;28;20039;-28
2023/10/28 09:37:38;;;;;;;6.45;2.08;;;16.90;1.00;;;;;;5050625;28;20037;-28
2023/10/28 09:40:05;;;;;;;6.65;2.35;;;;;;;;;;5049180;28;20098;-26
2023/10/28 09:42:32;;;;;;;6.70;2.17;;;;;;;;;;5047321;28;20508;-29
2023/10/28 09:45:05;;;;;;;7.95;2.50;;;16.70;1.00;;;;;;5011621;28;20045;-28
2023/10/28 09:48:02;;;;;;;5.53;2.10;;;16.30;1.00;;;;;;5079683;28;20037;-29
2023/10/28 09:50:30;;;;;;;6.70;2.10;;;16.80;1.00;;;;;;5049567;28;20041;-27
2023/10/28 09:52:57;;;;;;;5.00;2.00;;;;;;;;;;5049865;28;20033;-28
2023/10/28 09:55:30;;;;;;;6.32;2.22;;;16.70;1.00;;;;;;5048622;28;20490;-27
2023/10/28 09:58:25;;;;;;;6.72;2.20;;;;;;;;;;5050033;28;20040;-28
2023/10/28 10:00:58;;;;;;;5.03;1.90;;;16.00;1.00;;;;;;5046891;28;20055;-29
2023/10/28 10:03:31;;;;;;;4.53;1.90;;;;;;;;;;5045999;28;20048;-27
2023/10/28 10:05:57;;;;;;;5.40;2.00;;;16.70;1.00;;;;;;5043831;28;20126;-27
2023/10/28 10:08:23;;;;;;;5.50;1.75;;;;;;;;;;5048214;28;20092;-25
2023/10/28 10:10:50;;;;;;;5.57;2.22;;;;;;;;;;5048386;28;20523;-27
2023/10/28 10:13:16;;;;;;;5.55;1.90;;;16.90;1.00;;;;;;5046347;28;20041;-27
2023/10/28 10:15:55;;;;;;;5.18;1.90;;;16.00;1.00;;;;;;5044039;28;20033;-29
2023/10/28 10:18:38;;;;;;;5.78;1.73;;;16.90;1.00;;;;;;5044039;28;20163;-29
2023/10/28 10:21:12;;;;;;;4.65;1.60;;;;;;;;;;5036977;28;20057;-26
2023/10/28 10:23:49;;;;;;;5.03;1.90;;;16.80;1.00;;;;;;5044812;28;20087;-28
2023/10/28 10:26:31;;;;;;;6.53;1.95;;;16.30;1.00;;;;;;5046275;28;20771;-29
2023/10/28 10:28:58;;;;;;;5.25;2.00;;;15.90;1.00;;;;;;5048570;28;20045;-28
2023/10/28 10:31:30;;;;;;;4.70;1.80;;;16.80;1.00;;;;;;5048363;28;20413;-28
2023/10/28 10:34:03;;;;;;;6.60;2.00;;;;;;;;;;5041598;28;20118;-28
2023/10/28 10:36:30;;;;;;;5.18;2.08;;;16.60;1.00;;;;;;5049609;28;20236;-28
2023/10/28 10:39:09;;;;;;;5.05;2.10;;;;;;;;;;5041349;28;20037;-28
2023/10/28 10:41:35;;;;;;;6.00;1.80;;;16.70;1.00;;;;;;5048074;28;20618;-28
2023/10/28 10:44:25;;;;;;;4.20;1.55;;;16.20;1.00;;;;;;5038322;28;20041;-25
2023/10/28 10:46:53;;;;;;;4.63;1.70;;;16.90;1.00;;;;;;5039575;28;20512;-28
2023/10/28 10:49:19;;;;;;;5.85;1.63;;;16.70;1.00;;;;;;5041193;28;20042;-28
2023/10/28 10:51:45;;;;;;;7.20;2.20;;;16.80;1.00;;;;;;5045292;28;20051;-28
2023/10/28 10:54:11;;;;;;;5.13;1.65;;;;;;;;;;5044044;28;20033;-26
2023/10/28 10:56:37;;;;;;;4.00;1.50;;;16.20;1.00;;;;;;5040874;28;20044;-29
2023/10/28 10:59:03;;;;;;;5.90;2.00;;;17.20;1.00;;;;;;5047624;28;20470;-28
2023/10/28 11:01:29;;;;;;;5.40;1.73;;;16.50;1.00;;;;;;5044122;28;20038;-29
2023/10/28 11:03:57;;;;;;;5.35;1.65;;;16.60;1.00;;;;;;5047531;28;20037;-28
2023/10/28 11:06:23;;;;;;;5.15;1.55;;;16.60;1.00;;;;;;5044274;28;20041;-26
2023/10/28 11:08:49;;;;;;;5.43;1.60;;;16.80;1.00;;;;;;5047042;28;20124;-28
2023/10/28 11:11:14;;;;;;;6.68;2.10;;;17.00;1.00;;;;;;5044740;28;20475;-26
2023/10/28 11:13:40;;;;;;;3.97;1.50;;;16.60;1.00;;;;;;5043434;28;20029;-28
2023/10/28 11:16:19;;;;;;;5.95;1.95;;;;;;;;;;5049110;28;20033;-28
2023/10/28 11:18:44;;;;;;;5.03;1.60;;;16.40;1.00;;;;;;5041959;28;20038;-27
2023/10/28 11:21:10;;;;;;;5.72;1.73;;;16.70;1.00;;;;;;5047935;28;20037;-28
2023/10/28 11:23:36;;;;;;;6.22;1.80;;;16.00;1.00;;;;;;5050585;28;20037;-29
2023/10/28 11:26:03;;;;;;;5.10;1.60;;;17.00;1.00;;;;;;5050130;28;20127;-27
2023/10/28 11:28:34;;;;;;;7.13;2.00;;;16.30;1.00;;;;;;5042171;28;20059;-27
2023/10/28 11:31:00;;;;;;;4.65;1.70;;;17.10;1.00;;;;;;5042647;28;20044;-26
2023/10/28 11:33:26;;;;;;;4.22;1.38;;;16.50;1.00;;;;;;5044298;28;20416;-28
2023/10/28 11:35:52;;;;;;;5.60;1.92;;;16.70;1.00;;;;;;5036483;28;20049;-26
2023/10/28 11:38:18;;;;;;;6.38;1.50;;;;;;;;;;5047116;28;20037;-28
2023/10/28 11:40:44;;;;;;;6.32;1.83;;;16.70;1.00;;;;;;5038758;28;20048;-28
2023/10/28 11:43:10;;;;;;;5.53;1.80;;;17.00;1.00;;;;;;5042389;28;20416;-29
2023/10/28 11:45:35;;;;;;;4.72;1.50;;;16.40;1.00;;;;;;5046320;28;20048;-26
2023/10/28 11:48:01;;;;;;;3.83;1.35;;;16.80;1.00;;;;;;5078355;28;20076;-27
2023/10/28 11:50:27;;;;;;;5.20;1.50;;;16.50;1.00;;;;;;5044869;28;20044;-27
2023/10/28 11:52:53;;;;;;;4.03;1.40;;;17.10;1.00;;;;;;5050504;28;20492;-29
2023/10/28 11:55:19;;;;;;;4.30;1.80;;;16.60;1.00;;;;;;5049017;28;20118;-27
2023/10/28 11:57:45;;;;;;;4.00;1.40;;;16.40;1.00;;;;;;5054838;28;20043;-27
2023/10/28 12:00:12;;;;;;;5.47;1.73;;;16.50;1.00;;;;;;5036724;28;20033;-29
2023/10/28 12:02:38;;;;;;;5.55;1.55;;;16.90;1.00;;;;;;5047914;28;20383;-25
2023/10/28 12:05:04;;;;;;;5.57;2.05;;;16.80;1.00;;;;;;5037771;28;20045;-28
2023/10/28 12:07:29;;;;;;;4.82;1.50;;;16.50;1.00;;;;;;5047357;28;20033;-28
2023/10/28 12:09:55;;;;;;;5.43;1.60;;;16.50;1.00;;;;;;5052247;28;20087;-28
2023/10/28 12:12:21;;;;;;;4.40;1.48;;;16.40;1.00;;;;;;5056276;28;20120;-28
2023/10/28 12:14:46;;;;;;;5.28;2.22;;;16.60;1.00;;;;;;5050901;28;20045;-26
2023/10/28 12:17:12;;;;;;;6.30;2.00;;;16.50;1.00;;;;;;5051371;28;20496;-28
2023/10/28 12:19:39;;;;;;;5.07;1.75;;;16.80;1.00;;;;;;5052818;28;20047;-28
2023/10/28 12:22:05;;;;;;;5.22;1.60;;;16.70;1.00;;;;;;5056631;28;20045;-29
2023/10/28 12:24:33;;;;;;;4.75;1.58;;;16.70;1.00;;;;;;5044698;28;20056;-26
2023/10/28 12:26:58;;;;;;;6.13;1.55;;;16.60;1.00;;;;;;5044041;28;20056;-27
2023/10/28 12:29:25;;;;;;;5.95;1.70;;;15.90;1.00;;;;;;5049916;28;20041;-28
2023/10/28 12:31:52;;;;;;;4.95;1.58;;;16.90;1.00;;;;;;5055112;28;20040;-28
2023/10/28 12:34:17;;;;;;;4.20;1.35;;;16.80;1.00;;;;;;5045778;28;20037;-27
2023/10/28 12:36:46;;;;;;;5.68;2.45;;;16.50;1.00;;;;;;5046773;28;20090;-26
2023/10/28 12:39:16;;;;;;;6.40;1.52;;;16.40;1.00;;;;;;5051027;28;20143;-28
2023/10/28 12:41:44;;;;;;;4.70;1.60;;;16.40;1.00;;;;;;5050303;28;20060;-26
2023/10/28 12:44:11;;;;;;;5.13;1.70;;;16.60;1.00;;;;;;5040632;28;20041;-27
2023/10/28 12:46:37;;;;;;;4.78;1.50;;;16.90;1.00;;;;;;5054648;28;20037;-26
2023/10/28 12:49:02;;;;;;;5.78;1.73;;;16.80;1.00;;;;;;5039578;28;20057;-28
2023/10/28 12:51:28;;;;;;;5.78;1.35;;;16.70;1.00;;;;;;5051677;28;20408;-27
2023/10/28 12:53:57;;;;;;;6.72;1.65;;;16.50;1.00;;;;;;5046416;28;20061;-27
2023/10/28 12:56:23;;;;;;;5.32;1.60;;;;;;;;;;5048797;28;20040;-28
2023/10/28 12:58:49;;;;;;;4.80;2.22;;;16.60;1.00;;;;;;5049152;28;20037;-29
2023/10/28 13:01:14;;;;;;;4.40;1.42;;;16.50;1.00;;;;;;5048338;28;20075;-28
2023/10/28 13:03:40;;;;;;;7.43;1.70;;;16.90;1.00;;;;;;5056407;28;20080;-28
2023/10/28 13:06:06;;;;;;;5.75;1.77;;;16.00;1.00;;;;;;5048869;28;20247;-28
2023/10/28 13:08:32;;;;;;;6.55;1.60;;;16.70;1.00;;;;;;5070709;28;20037;-28
2023/10/28 13:10:58;;;;;;;4.35;1.48;;;16.00;1.00;;;;;;5049273;28;20577;-29
2023/10/28 13:13:23;;;;;;;5.22;1.50;;;16.50;1.00;;;;;;5050061;28;20033;-27